createdAt,value
2022-09-30T00:04:36.015Z,6.61
2022-09-30T00:09:38.891Z,7.06
2022-09-30T00:14:41.561Z,5.62
2022-09-30T00:19:46.665Z,5.74
2022-09-30T00:24:50.422Z,6.29
2022-09-30T00:29:53.933Z,6.62
2022-09-30T00:34:57.813Z,5.25
2022-09-30T00:40:00.629Z,5.68
2022-09-30T00:45:07.194Z,5.32
2022-09-30T00:50:28.490Z,4.76
2022-09-30T00:55:37.374Z,5.25
2022-09-30T01:00:40.338Z,5.40
2022-09-30T01:05:44.808Z,5.22
2022-09-30T01:10:47.812Z,4.96
2022-09-30T01:16:07.241Z,4.91
2022-09-30T01:21:35.344Z,5.81
2022-09-30T01:26:53.271Z,5.43
2022-09-30T01:32:07.196Z,5.44
2022-09-30T01:37:18.911Z,6.68
2022-09-30T01:42:29.239Z,6.30
2022-09-30T01:47:42.271Z,6.38
2022-09-30T01:52:51.054Z,6.81
2022-09-30T01:57:58.234Z,7.25
2022-09-30T02:03:06.742Z,7.41
2022-09-30T02:08:16.947Z,7.21
2022-09-30T02:13:23.484Z,6.91
2022-09-30T02:18:31.760Z,6.95
2022-09-30T02:23:40.771Z,6.45
2022-09-30T02:28:47.395Z,7.15
2022-09-30T02:33:55.640Z,7.42
2022-09-30T02:39:04.082Z,7.53
2022-09-30T02:44:07.292Z,7.53
2022-09-30T02:49:21.602Z,7.58
2022-09-30T02:54:32.155Z,7.34
2022-09-30T02:59:34.809Z,7.18
2022-09-30T03:04:42.074Z,7.08
2022-09-30T03:09:45.100Z,7.00
2022-09-30T03:15:04.449Z,6.61
2022-09-30T03:20:31.121Z,5.96
2022-09-30T03:25:44.625Z,5.73
2022-09-30T03:30:53.736Z,6.44
2022-09-30T03:36:02.688Z,6.55
2022-09-30T03:41:12.665Z,5.42
2022-09-30T03:46:23.184Z,4.91
2022-09-30T03:51:29.382Z,4.50
2022-09-30T03:56:32.136Z,4.57
2022-09-30T04:01:34.732Z,5.31
2022-09-30T04:06:38.669Z,5.82
2022-09-30T04:11:41.387Z,5.44
2022-09-30T04:16:44.009Z,6.23
2022-09-30T04:21:48.053Z,6.44
2022-09-30T04:26:51.113Z,5.95
2022-09-30T04:31:53.945Z,6.42
2022-09-30T04:36:57.972Z,5.52
2022-09-30T04:42:00.673Z,5.57
2022-09-30T04:47:03.562Z,5.85
2022-09-30T04:52:07.858Z,5.86
2022-09-30T04:57:10.446Z,5.53
2022-09-30T05:02:13.776Z,6.17
2022-09-30T05:07:18.058Z,5.93
2022-09-30T05:12:24.039Z,5.65
2022-09-30T05:17:26.800Z,6.35
2022-09-30T05:22:30.725Z,5.64
2022-09-30T05:27:33.520Z,5.57
2022-09-30T05:32:36.209Z,5.92
2022-09-30T05:37:40.494Z,6.35
2022-09-30T05:42:47.259Z,6.40
2022-09-30T05:47:52.911Z,6.71
2022-09-30T05:52:57.454Z,6.91
2022-09-30T05:57:59.887Z,6.69
2022-09-30T06:03:02.469Z,6.57
2022-09-30T06:08:07.437Z,5.61
2022-09-30T06:13:10.799Z,5.64
2022-09-30T06:18:17.700Z,6.50
2022-09-30T06:23:21.863Z,6.22
2022-09-30T06:28:25.244Z,5.47
2022-09-30T06:33:27.953Z,6.56
2022-09-30T06:38:32.137Z,6.75
2022-09-30T06:43:44.865Z,6.96
2022-09-30T06:49:09.763Z,7.44
2022-09-30T06:54:16.465Z,7.75
2022-09-30T06:59:19.296Z,8.29
2022-09-30T07:04:22.107Z,8.12
2022-09-30T07:09:26.255Z,8.75
2022-09-30T07:14:31.396Z,9.22
2022-09-30T07:19:35.125Z,9.73
2022-09-30T07:24:39.027Z,10.26
2022-09-30T07:30:07.265Z,10.44
2022-09-30T07:35:06.213Z,10.79
2022-09-30T07:40:11.288Z,10.64
2022-09-30T07:45:15.998Z,11.16
2022-09-30T07:50:18.826Z,11.75
2022-09-30T07:55:22.956Z,11.99
2022-09-30T08:05:48.611Z,11.94
2022-09-30T08:10:52.589Z,12.02
2022-09-30T08:15:55.265Z,11.84
2022-09-30T08:20:58.366Z,11.34
2022-09-30T08:26:08.015Z,11.25
2022-09-30T08:31:13.140Z,10.99
2022-09-30T08:36:18.290Z,11.27
2022-09-30T08:41:41.796Z,11.45
2022-09-30T08:46:47.554Z,11.97
2022-09-30T08:51:52.651Z,12.39
2022-09-30T08:56:57.497Z,12.46
2022-09-30T09:02:03.303Z,12.46
2022-09-30T09:07:11.581Z,12.45
2022-09-30T09:12:29.050Z,12.93
2022-09-30T09:17:50.291Z,13.16
2022-09-30T09:23:11.477Z,13.01
2022-09-30T09:28:27.197Z,13.38
2022-09-30T09:33:31.990Z,13.86
2022-09-30T09:38:41.591Z,13.49
2022-09-30T09:43:58.337Z,13.71
2022-09-30T09:49:30.565Z,14.10
2022-09-30T09:54:36.588Z,14.17
2022-09-30T09:59:58.486Z,14.87
2022-09-30T10:05:03.043Z,15.61
2022-09-30T10:10:23.006Z,15.51
2022-09-30T10:15:28.152Z,16.68
2022-09-30T10:20:33.300Z,20.75
2022-09-30T10:25:36.724Z,23.87
2022-09-30T10:30:56.781Z,26.47
2022-09-30T10:36:09.753Z,28.36
2022-09-30T10:41:12.821Z,27.64
2022-09-30T10:46:26.807Z,27.92
2022-09-30T10:51:36.275Z,28.37
2022-09-30T10:56:43.137Z,26.05
2022-09-30T11:01:53.748Z,28.60
2022-09-30T11:07:02.988Z,33.09
2022-09-30T11:12:16.180Z,29.36
2022-09-30T11:17:41.126Z,31.03
2022-09-30T11:22:53.738Z,29.19
2022-09-30T11:28:14.920Z,27.35
2022-09-30T11:33:32.278Z,29.65
2022-09-30T11:38:54.625Z,28.34
2022-09-30T11:44:09.112Z,25.73
2022-09-30T11:49:39.091Z,25.16
2022-09-30T11:54:55.103Z,29.76
2022-09-30T12:00:02.468Z,30.83
2022-09-30T12:05:12.892Z,33.34
2022-09-30T12:10:22.100Z,34.98
2022-09-30T12:15:26.962Z,35.68
2022-09-30T12:20:35.179Z,34.72
2022-09-30T12:25:42.999Z,26.36
2022-09-30T12:30:47.826Z,33.53
2022-09-30T12:36:07.315Z,32.77
2022-09-30T12:41:40.873Z,26.44
2022-09-30T12:46:59.276Z,32.05
2022-09-30T12:52:08.165Z,35.10
2022-09-30T12:57:11.574Z,32.67
2022-09-30T13:02:31.731Z,29.22
2022-09-30T13:07:36.199Z,31.23
2022-09-30T13:12:44.112Z,35.67
2022-09-30T13:17:47.000Z,36.28
2022-09-30T13:23:01.515Z,36.75
2022-09-30T13:28:30.685Z,32.99
2022-09-30T13:33:46.263Z,32.74
2022-09-30T13:39:07.959Z,32.41
2022-09-30T13:44:16.448Z,34.38
2022-09-30T13:49:24.845Z,34.65
2022-09-30T13:54:33.986Z,35.28
2022-09-30T13:59:49.182Z,31.45
2022-09-30T14:05:06.475Z,32.44
2022-09-30T14:10:23.535Z,32.91
2022-09-30T14:15:48.247Z,33.41
2022-09-30T14:21:06.438Z,34.24
2022-09-30T14:26:26.010Z,35.70
2022-09-30T14:31:32.259Z,35.54
2022-09-30T14:36:35.622Z,33.95
2022-09-30T14:41:41.132Z,32.50
2022-09-30T14:46:46.682Z,29.80
2022-09-30T14:51:50.133Z,29.46
2022-09-30T14:56:54.531Z,26.92
2022-09-30T15:02:00.591Z,23.42
2022-09-30T15:07:07.203Z,21.32
2022-09-30T15:12:16.072Z,20.67
2022-09-30T15:17:20.367Z,19.39
2022-09-30T15:22:24.799Z,19.67
2022-09-30T15:27:31.577Z,18.72
2022-09-30T15:32:36.579Z,19.04
2022-09-30T15:37:39.744Z,18.15
2022-09-30T15:42:53.919Z,18.17
2022-09-30T15:47:59.171Z,18.88
2022-09-30T15:53:06.140Z,17.28
2022-09-30T15:58:37.868Z,16.86
2022-09-30T16:03:47.487Z,17.37
2022-09-30T16:08:54.953Z,17.53
2022-09-30T16:14:00.204Z,16.86
2022-09-30T16:19:04.672Z,16.37
2022-09-30T16:24:43.889Z,15.74
2022-09-30T16:29:48.241Z,14.73
2022-09-30T16:34:50.964Z,14.45
2022-09-30T16:39:56.611Z,14.64
2022-09-30T16:45:01.883Z,14.70
2022-09-30T16:50:16.624Z,13.27
2022-09-30T16:55:19.565Z,13.67
2022-09-30T17:00:23.755Z,12.98
2022-09-30T17:05:27.542Z,13.40
2022-09-30T17:10:33.334Z,12.38
2022-09-30T17:15:37.689Z,13.53
2022-09-30T17:20:45.172Z,11.84
2022-09-30T17:25:48.414Z,11.21
2022-09-30T17:30:52.446Z,10.90
2022-09-30T17:36:00.425Z,10.87
2022-09-30T17:41:21.320Z,10.92
2022-09-30T17:46:25.579Z,10.76
2022-09-30T17:51:28.362Z,10.53
2022-09-30T17:56:32.088Z,10.45
2022-09-30T18:01:41.400Z,9.99
2022-09-30T18:06:44.112Z,9.97
2022-09-30T18:11:46.998Z,9.96
2022-09-30T18:16:51.070Z,10.12
2022-09-30T18:21:54.023Z,10.01
2022-09-30T18:26:56.704Z,10.18
2022-09-30T18:32:01.110Z,10.14
2022-09-30T18:37:06.485Z,10.22
2022-09-30T18:42:09.394Z,10.98
2022-09-30T18:47:16.206Z,11.47
2022-09-30T18:52:18.947Z,11.71
2022-09-30T18:57:21.610Z,10.56
2022-09-30T19:02:27.191Z,10.22
2022-09-30T19:07:29.988Z,9.21
2022-09-30T19:12:35.827Z,9.19
2022-09-30T19:17:40.009Z,10.02
2022-09-30T19:22:43.451Z,9.13
2022-09-30T19:27:46.667Z,8.95
2022-09-30T19:32:56.500Z,8.68
2022-09-30T19:38:03.074Z,8.50
2022-09-30T19:43:08.095Z,8.01
2022-09-30T19:48:12.059Z,8.36
2022-09-30T19:53:27.383Z,9.00
2022-09-30T19:58:33.426Z,9.48
2022-09-30T20:03:37.417Z,9.86
2022-09-30T20:08:40.522Z,9.92
2022-09-30T20:13:43.508Z,9.51
2022-09-30T20:18:47.448Z,8.95
2022-09-30T20:23:50.540Z,8.64
2022-09-30T20:29:00.967Z,7.99
2022-09-30T20:34:06.017Z,8.41
2022-09-30T20:39:09.129Z,8.42
2022-09-30T20:44:13.077Z,8.55
2022-09-30T20:49:17.106Z,9.58
2022-09-30T20:54:19.747Z,9.82
2022-09-30T20:59:23.136Z,9.95
2022-09-30T21:04:27.070Z,9.64
2022-09-30T21:09:30.619Z,9.92
2022-09-30T21:14:33.235Z,9.66
2022-09-30T21:19:40.320Z,9.69
2022-09-30T21:24:43.104Z,9.50
2022-09-30T21:29:45.730Z,8.89
2022-09-30T21:34:49.697Z,8.92
2022-09-30T21:39:52.351Z,9.40
2022-09-30T21:44:55.542Z,8.36
2022-09-30T21:50:06.424Z,8.04
2022-09-30T21:55:11.717Z,7.18
2022-09-30T22:00:14.646Z,6.83
2022-09-30T22:05:20.712Z,7.27
2022-09-30T22:10:23.307Z,8.04
2022-09-30T22:15:26.023Z,7.63
2022-09-30T22:20:30.450Z,7.17
2022-09-30T22:25:33.288Z,7.61
2022-09-30T22:30:36.071Z,7.32
2022-09-30T22:35:59.816Z,7.14
2022-09-30T22:41:02.895Z,7.52
2022-09-30T22:46:07.924Z,7.62
2022-09-30T22:51:16.885Z,8.20
2022-09-30T22:56:20.084Z,7.28
2022-09-30T23:01:23.073Z,7.71
2022-09-30T23:06:27.121Z,8.36
2022-09-30T23:11:29.932Z,8.57
2022-09-30T23:16:32.835Z,8.56
2022-09-30T23:21:37.411Z,8.76
2022-09-30T23:26:40.261Z,8.66
2022-09-30T23:31:43.155Z,8.60
2022-09-30T23:36:47.406Z,8.55
2022-09-30T23:41:50.776Z,8.51
2022-09-30T23:47:11.099Z,8.37
2022-09-30T23:52:16.094Z,8.25
2022-09-30T23:57:18.666Z,8.34
